Time;durP1;ratioP1;P1;durP2;ratioP2;P2;SDS_P1;SDS_P2;PMS_P1;PMS_P2;Temp;Humidity;BMP_temperature;BMP_pressure;BME280_temperature;BME280_humidity;BME280_pressure;Samples;Min_cycle;Max_cycle;Signal;HPM_P1;HPM_P2
2023/06/01 00:01:46;;;;;;;20.58;8.68;;;;;;;14.85;100.00;102208.06;5237703;28;20025;-69
2023/06/01 00:04:17;;;;;;;21.33;9.05;;;;;;;14.81;100.00;102199.44;5238233;28;20210;-69
2023/06/01 00:06:48;;;;;;;25.88;9.23;;;;;;;14.79;100.00;102203.31;5235215;28;20247;-68
2023/06/01 00:09:18;;;;;;;22.73;9.30;;;;;;;14.70;100.00;102202.41;5226283;28;20449;-69
2023/06/01 00:11:49;;;;;;;24.17;9.77;;;;;;;14.67;100.00;102200.88;5244859;28;20399;-68
2023/06/01 00:14:19;;;;;;;21.33;9.90;;;;;;;14.64;100.00;102195.78;5244658;28;20027;-69
2023/06/01 00:16:51;;;;;;;17.45;9.00;;;;;;;14.60;100.00;102199.81;5233264;28;20027;-69
2023/06/01 00:19:25;;;;;;;20.50;9.95;;;;;;;14.50;100.00;102194.53;5242371;28;20029;-69
2023/06/01 00:21:57;;;;;;;23.33;10.13;;;;;;;14.49;100.00;102194.69;5233070;28;20074;-68
2023/06/01 00:24:27;;;;;;;21.13;9.85;;;;;;;14.44;100.00;102197.00;5244154;28;20099;-68
2023/06/01 00:26:58;;;;;;;21.40;10.02;;;;;;;14.39;100.00;102196.63;5243538;28;20031;-68
2023/06/01 00:29:29;;;;;;;22.67;10.45;;;;;;;14.34;100.00;102199.78;5243920;28;20537;-68
2023/06/01 00:31:59;;;;;;;25.45;11.73;;;;;;;14.29;100.00;102195.88;5228561;28;20466;-68
2023/06/01 00:34:30;;;;;;;18.45;10.82;;;;;;;14.23;100.00;102202.75;5223374;28;20049;-68
2023/06/01 00:37:00;;;;;;;22.30;9.98;;;;;;;14.19;100.00;102191.41;5240060;28;20020;-68
2023/06/01 00:39:31;;;;;;;22.48;10.73;;;;;;;14.12;100.00;102195.75;5244132;28;20025;-68
2023/06/01 00:42:02;;;;;;;23.63;11.40;;;;;;;14.09;100.00;102195.22;5243828;28;20025;-69
2023/06/01 00:44:32;;;;;;;22.30;10.88;;;;;;;14.04;100.00;102190.28;5232298;28;20109;-69
2023/06/01 00:47:03;;;;;;;24.50;10.90;;;;;;;14.00;100.00;102186.19;5228776;28;20008;-69
2023/06/01 00:49:34;;;;;;;22.65;11.15;;;;;;;13.97;100.00;102191.94;5244411;28;20036;-69
2023/06/01 00:52:05;;;;;;;21.63;10.80;;;;;;;13.93;100.00;102188.69;5236848;28;20028;-69
2023/06/01 00:54:35;;;;;;;21.77;11.18;;;;;;;13.91;100.00;102193.41;5235830;28;20071;-69
2023/06/01 00:57:07;;;;;;;22.95;11.05;;;;;;;13.88;100.00;102196.41;5222720;28;20028;-69
2023/06/01 00:59:38;;;;;;;23.50;11.07;;;;;;;13.84;100.00;102196.88;5225803;28;20578;-69
2023/06/01 01:02:09;;;;;;;25.40;12.02;;;;;;;13.82;100.00;102193.47;5244464;28;20474;-69
2023/06/01 01:04:40;;;;;;;22.33;11.43;;;;;;;13.77;100.00;102202.03;5244128;28;20021;-69
2023/06/01 01:07:32;;;;;;;27.40;11.73;;;;;;;13.72;100.00;102204.34;5243544;28;20028;-69
2023/06/01 01:10:13;;;;;;;30.38;11.95;;;;;;;13.66;100.00;102210.38;5243822;28;20034;-69
2023/06/01 01:12:46;;;;;;;20.38;10.40;;;;;;;13.62;100.00;102212.50;5226587;28;20386;-69
2023/06/01 01:15:24;;;;;;;23.65;11.68;;;;;;;13.58;100.00;102208.41;5234231;28;20052;-69
2023/06/01 01:18:02;;;;;;;25.25;11.30;;;;;;;13.47;100.00;102206.78;5243549;28;20492;-69
2023/06/01 01:20:57;;;;;;;21.63;11.63;;;;;;;13.45;100.00;102208.81;5243675;28;20012;-69
2023/06/01 01:24:00;;;;;;;33.22;11.90;;;;;;;13.41;100.00;102204.72;5241304;28;20079;-69
2023/06/01 01:26:45;;;;;;;26.35;12.50;;;;;;;13.39;100.00;102204.00;5222710;28;20021;-69
2023/06/01 01:29:16;;;;;;;34.00;13.43;;;;;;;13.37;100.00;102197.06;5222991;28;20037;-69
2023/06/01 01:31:49;;;;;;;25.52;12.15;;;;;;;13.31;100.00;102200.38;5237174;28;20032;-69
2023/06/01 01:34:20;;;;;;;21.30;11.15;;;;;;;13.26;100.00;102208.06;5244005;28;20017;-69
2023/06/01 01:36:51;;;;;;;23.70;12.80;;;;;;;13.17;100.00;102199.84;5241328;28;20523;-69
2023/06/01 01:39:22;;;;;;;28.88;13.13;;;;;;;13.12;100.00;102198.59;5232199;28;20437;-69
2023/06/01 01:41:52;;;;;;;27.45;12.70;;;;;;;13.08;100.00;102195.34;5240184;28;20060;-69
2023/06/01 01:44:23;;;;;;;21.88;11.85;;;;;;;13.04;100.00;102203.88;5233153;28;20046;-69
2023/06/01 01:47:09;;;;;;;27.20;12.88;;;;;;;12.99;100.00;102200.78;5242738;28;20032;-69
2023/06/01 01:49:43;;;;;;;25.52;11.85;;;;;;;12.96;100.00;102200.09;5243965;28;20505;-69
2023/06/01 01:52:21;;;;;;;26.70;12.85;;;;;;;12.92;100.00;102198.69;5243527;28;20112;-69
2023/06/01 01:54:53;;;;;;;28.65;12.55;;;;;;;12.88;100.00;102200.00;5240012;28;20066;-69
2023/06/01 01:57:25;;;;;;;32.47;13.88;;;;;;;12.85;100.00;102204.81;5222315;28;20017;-69
2023/06/01 01:59:56;;;;;;;24.15;11.73;;;;;;;12.81;100.00;102204.28;5241276;28;20032;-69
2023/06/01 02:02:28;;;;;;;28.95;13.00;;;;;;;12.76;100.00;102209.25;5231546;28;20047;-69
2023/06/01 02:04:58;;;;;;;26.45;12.75;;;;;;;12.72;100.00;102205.16;5228879;28;20083;-69
2023/06/01 02:07:30;;;;;;;30.48;13.65;;;;;;;12.72;100.00;102207.84;5244502;28;20032;-69
2023/06/01 02:10:01;;;;;;;34.50;14.27;;;;;;;12.68;100.00;102207.28;5234161;28;20136;-69
2023/06/01 02:12:31;;;;;;;32.33;13.32;;;;;;;12.66;100.00;102208.44;5245933;28;20024;-69
2023/06/01 02:15:03;;;;;;;31.10;13.68;;;;;;;12.63;100.00;102206.88;5235473;28;20024;-69
2023/06/01 02:17:34;;;;;;;28.90;13.18;;;;;;;12.58;100.00;102209.16;5246529;28;20036;-69
2023/06/01 02:20:05;;;;;;;35.42;14.27;;;;;;;12.57;100.00;102212.88;5245988;28;20024;-69
2023/06/01 02:22:36;;;;;;;29.48;13.27;;;;;;;12.54;100.00;102213.13;5233675;28;20025;-69
2023/06/01 02:25:07;;;;;;;33.28;14.25;;;;;;;12.50;100.00;102217.16;5247226;28;20040;-69
2023/06/01 02:27:38;;;;;;;26.88;13.43;;;;;;;12.47;100.00;102212.03;5246596;28;20040;-69
2023/06/01 02:30:08;;;;;;;29.20;13.63;;;;;;;12.45;100.00;102203.28;5247088;28;20582;-69
2023/06/01 02:32:39;;;;;;;32.28;13.02;;;;;;;12.38;100.00;102211.06;5239153;28;20021;-69
2023/06/01 02:35:09;;;;;;;31.55;14.23;;;;;;;12.34;100.00;102206.09;5227945;28;20364;-69
2023/06/01 02:37:40;;;;;;;32.63;13.73;;;;;;;12.30;100.00;102210.06;5237388;28;20124;-69
2023/06/01 02:40:11;;;;;;;35.45;14.45;;;;;;;12.29;100.00;102208.38;5241898;28;20024;-69
2023/06/01 02:42:41;;;;;;;30.63;14.15;;;;;;;12.25;100.00;102206.97;5246471;28;20389;-69
2023/06/01 02:45:12;;;;;;;26.85;13.73;;;;;;;12.21;100.00;102200.19;5242689;28;20069;-69
2023/06/01 02:47:44;;;;;;;35.90;15.27;;;;;;;12.19;100.00;102205.72;5236295;28;20137;-69
2023/06/01 02:50:15;;;;;;;33.78;14.48;;;;;;;12.14;100.00;102210.66;5240999;28;20037;-69
2023/06/01 02:52:45;;;;;;;34.47;14.85;;;;;;;12.09;100.00;102210.25;5238708;28;20555;-69
2023/06/01 02:55:16;;;;;;;33.40;14.85;;;;;;;12.07;100.00;102209.56;5232409;28;20485;-69
2023/06/01 02:57:46;;;;;;;31.92;14.55;;;;;;;12.04;100.00;102213.38;5246327;28;20025;-69
2023/06/01 03:00:17;;;;;;;36.90;15.68;;;;;;;12.01;100.00;102210.13;5238577;28;20025;-70
2023/06/01 03:02:48;;;;;;;34.67;16.08;;;;;;;11.97;100.00;102212.25;5227256;28;20111;-69
2023/06/01 03:05:21;;;;;;;34.25;14.82;;;;;;;11.92;100.00;102203.75;5237324;28;20495;-69
2023/06/01 03:07:51;;;;;;;35.30;14.88;;;;;;;11.89;100.00;102212.94;5241032;28;20478;-69
2023/06/01 03:10:22;;;;;;;43.05;16.52;;;;;;;11.87;100.00;102219.47;5245988;28;20063;-69
2023/06/01 03:12:52;;;;;;;29.98;14.63;;;;;;;11.88;100.00;102215.78;5242153;28;20133;-69
2023/06/01 03:15:22;;;;;;;37.42;14.70;;;;;;;11.81;100.00;102220.84;5237068;28;20112;-69
2023/06/01 03:17:53;;;;;;;39.08;14.93;;;;;;;11.79;100.00;102221.97;5245286;28;20339;-69
2023/06/01 03:20:24;;;;;;;38.47;14.43;;;;;;;11.76;100.00;102224.97;5235740;28;20066;-69
2023/06/01 03:22:54;;;;;;;34.38;15.25;;;;;;;11.73;100.00;102225.22;5235185;28;20036;-69
2023/06/01 03:25:25;;;;;;;36.65;14.45;;;;;;;11.71;100.00;102224.53;5245729;28;20028;-69
2023/06/01 03:27:55;;;;;;;40.20;15.45;;;;;;;11.68;100.00;102226.50;5245261;28;20020;-69
2023/06/01 03:30:26;;;;;;;33.10;14.77;;;;;;;11.64;100.00;102226.91;5245536;28;20396;-69
2023/06/01 03:32:56;;;;;;;34.42;16.27;;;;;;;11.60;100.00;102221.00;5245410;28;20024;-69
2023/06/01 03:35:27;;;;;;;33.55;13.45;;;;;;;11.56;100.00;102211.50;5245190;28;20470;-69
2023/06/01 03:37:57;;;;;;;33.13;14.52;;;;;;;11.56;100.00;102216.88;5233607;28;20135;-69
2023/06/01 03:40:28;;;;;;;38.28;14.90;;;;;;;11.51;100.00;102216.44;5243565;28;20135;-69
2023/06/01 03:42:58;;;;;;;37.33;16.05;;;;;;;11.50;100.00;102220.13;5245480;28;20078;-69
2023/06/01 03:45:29;;;;;;;35.03;15.52;;;;;;;11.47;100.00;102228.44;5238359;28;20025;-69
2023/06/01 03:47:59;;;;;;;36.15;14.70;;;;;;;11.42;100.00;102217.25;5237996;28;20018;-69
2023/06/01 03:50:30;;;;;;;35.88;15.40;;;;;;;11.41;100.00;102223.63;5227433;28;20112;-69
2023/06/01 03:53:00;;;;;;;34.25;14.93;;;;;;;11.36;100.00;102225.88;5245292;28;20075;-69
2023/06/01 03:55:32;;;;;;;39.83;15.10;;;;;;;11.35;100.00;102226.88;5236392;28;20429;-69
2023/06/01 03:58:04;;;;;;;37.90;16.40;;;;;;;11.34;100.00;102231.38;5237459;28;20039;-69
2023/06/01 04:00:36;;;;;;;39.80;16.20;;;;;;;11.35;100.00;102240.31;5234425;28;20021;-69
2023/06/01 04:03:07;;;;;;;31.15;14.00;;;;;;;11.37;100.00;102239.16;5241023;28;20029;-68
2023/06/01 04:05:37;;;;;;;34.25;16.23;;;;;;;11.43;100.00;102237.78;5235693;28;20026;-68
2023/06/01 04:08:08;;;;;;;40.10;14.93;;;;;;;11.48;100.00;102240.88;5244184;28;20025;-69
2023/06/01 04:10:40;;;;;;;34.10;14.68;;;;;;;11.48;100.00;102235.50;5245053;28;20119;-69
2023/06/01 04:13:10;;;;;;;32.95;15.70;;;;;;;11.49;100.00;102241.75;5231537;28;20024;-69
2023/06/01 04:15:41;;;;;;;39.90;15.52;;;;;;;11.48;100.00;102245.41;5244226;28;20328;-69
2023/06/01 04:18:12;;;;;;;36.63;15.43;;;;;;;11.53;100.00;102237.78;5236717;28;20140;-69
2023/06/01 04:20:42;;;;;;;32.38;14.90;;;;;;;11.54;100.00;102236.78;5225660;28;20078;-69
2023/06/01 04:23:13;;;;;;;36.28;14.50;;;;;;;11.59;100.00;102239.91;5242404;28;20012;-69
2023/06/01 04:25:44;;;;;;;36.55;16.33;;;;;;;11.59;100.00;102232.69;5239976;28;20029;-69
2023/06/01 04:28:14;;;;;;;38.58;16.75;;;;;;;11.60;100.00;102242.50;5235638;28;20024;-69
2023/06/01 04:30:47;;;;;;;38.88;16.52;;;;;;;11.62;100.00;102243.19;5243940;28;20409;-69
2023/06/01 04:33:17;;;;;;;30.42;14.65;;;;;;;11.65;100.00;102245.59;5244286;28;20486;-69
2023/06/01 04:35:49;;;;;;;37.38;16.35;;;;;;;11.68;100.00;102244.47;5243857;28;20021;-69
2023/06/01 04:38:21;;;;;;;34.10;15.57;;;;;;;11.70;100.00;102255.94;5231483;28;20070;-69
2023/06/01 04:40:53;;;;;;;43.40;16.50;;;;;;;11.73;100.00;102260.19;5244496;28;20031;-69
2023/06/01 04:43:23;;;;;;;32.38;14.00;;;;;;;11.73;100.00;102258.34;5244429;28;20323;-69
2023/06/01 04:45:55;;;;;;;32.58;14.65;;;;;;;11.75;100.00;102259.06;5233634;28;20442;-69
2023/06/01 04:48:26;;;;;;;38.47;14.82;;;;;;;11.85;100.00;102265.34;5236949;28;20033;-69
2023/06/01 04:50:57;;;;;;;39.35;16.75;;;;;;;11.93;100.00;102264.63;5223644;28;20500;-70
2023/06/01 04:53:28;;;;;;;39.13;15.55;;;;;;;11.98;100.00;102262.34;5242438;28;20024;-69
2023/06/01 04:55:58;;;;;;;36.30;16.45;;;;;;;12.01;100.00;102256.72;5231285;28;20025;-69
2023/06/01 04:58:29;;;;;;;36.08;15.48;;;;;;;11.98;100.00;102259.66;5236904;28;20524;-69
2023/06/01 05:01:00;;;;;;;33.05;14.93;;;;;;;12.00;100.00;102256.81;5237146;28;20727;-69
2023/06/01 05:03:30;;;;;;;36.10;14.80;;;;;;;12.06;100.00;102259.81;5244252;28;20428;-69
2023/06/01 05:06:01;;;;;;;32.80;14.48;;;;;;;12.06;100.00;102258.97;5230104;28;20025;-69
2023/06/01 05:08:33;;;;;;;32.47;14.73;;;;;;;12.16;100.00;102259.81;5235285;28;20116;-69
2023/06/01 05:11:03;;;;;;;31.05;14.75;;;;;;;12.19;100.00;102260.38;5239201;28;20122;-69
2023/06/01 05:13:35;;;;;;;35.72;14.85;;;;;;;12.21;100.00;102267.47;5226313;28;20063;-69
2023/06/01 05:16:07;;;;;;;32.72;14.85;;;;;;;12.14;100.00;102259.94;5239252;28;20437;-69
2023/06/01 05:18:38;;;;;;;33.25;13.52;;;;;;;12.18;100.00;102266.75;5235151;28;20036;-69
2023/06/01 05:21:09;;;;;;;23.33;11.93;;;;;;;12.30;100.00;102269.28;5239256;28;20028;-69
2023/06/01 05:23:39;;;;;;;29.60;13.23;;;;;;;12.33;100.00;102266.31;5240770;28;20394;-69
2023/06/01 05:26:09;;;;;;;27.33;12.02;;;;;;;12.23;100.00;102268.16;5203498;28;20193;-69
2023/06/01 05:28:40;;;;;;;26.70;11.27;;;;;;;12.26;100.00;102260.66;5238073;28;20029;-69
2023/06/01 05:31:11;;;;;;;30.90;12.10;;;;;;;12.32;100.00;102270.00;5234430;28;20025;-69
2023/06/01 05:33:41;;;;;;;25.48;11.07;;;;;;;12.23;100.00;102258.25;5207304;28;20032;-69
2023/06/01 05:36:12;;;;;;;27.05;11.90;;;;;;;12.28;100.00;102268.59;5242642;28;20024;-69
2023/06/01 05:38:42;;;;;;;20.25;11.50;;;;;;;12.26;100.00;102263.34;5238899;28;20474;-69
2023/06/01 05:41:13;;;;;;;28.40;11.68;;;;;;;12.24;100.00;102262.63;5223977;28;20025;-69
2023/06/01 05:43:43;;;;;;;25.85;11.55;;;;;;;12.17;100.00;102262.34;5231583;28;20031;-69
2023/06/01 05:46:14;;;;;;;26.05;11.77;;;;;;;12.22;100.00;102271.84;5233366;28;20397;-69
2023/06/01 05:48:44;;;;;;;29.10;11.60;;;;;;;12.25;100.00;102274.22;5240322;28;20111;-69
2023/06/01 05:51:15;;;;;;;28.52;11.70;;;;;;;12.34;100.00;102274.22;5245755;28;20013;-69
2023/06/01 05:53:45;;;;;;;29.50;11.27;;;;;;;12.35;100.00;102272.38;5243145;28;20099;-69
2023/06/01 05:56:16;;;;;;;28.95;12.18;;;;;;;12.37;100.00;102273.97;5247125;28;20016;-70
2023/06/01 05:58:50;;;;;;;21.13;11.10;;;;;;;12.32;100.00;102275.38;5246062;28;20036;-69
2023/06/01 06:01:22;;;;;;;25.23;11.85;;;;;;;12.37;100.00;102271.25;5242706;28;20039;-70
2023/06/01 06:03:52;;;;;;;25.05;11.85;;;;;;;12.38;100.00;102267.56;5237761;28;20112;-69
2023/06/01 06:06:23;;;;;;;30.08;11.07;;;;;;;12.51;100.00;102269.97;5246501;28;20111;-69
2023/06/01 06:08:54;;;;;;;27.40;11.45;;;;;;;12.68;100.00;102263.84;5234028;28;20036;-69
2023/06/01 06:11:25;;;;;;;20.58;10.65;;;;;;;12.74;100.00;102269.63;5245583;28;20069;-69
2023/06/01 06:13:56;;;;;;;26.25;11.40;;;;;;;12.73;100.00;102276.03;5233298;28;20225;-69
2023/06/01 06:16:26;;;;;;;26.95;10.73;;;;;;;12.86;100.00;102271.19;5245753;28;20035;-70
2023/06/01 06:18:57;;;;;;;27.17;11.73;;;;;;;13.05;100.00;102275.63;5232810;28;20025;-70
2023/06/01 06:21:29;;;;;;;22.85;11.13;;;;;;;13.23;100.00;102278.44;5234183;28;20049;-69
2023/06/01 06:23:59;;;;;;;21.95;11.02;;;;;;;13.27;100.00;102280.69;5243173;28;20359;-69
2023/06/01 06:26:30;;;;;;;26.60;11.57;;;;;;;13.42;100.00;102276.50;5244530;28;20024;-70
2023/06/01 06:29:00;;;;;;;25.92;10.32;;;;;;;13.50;100.00;102280.25;5244558;28;20035;-70
2023/06/01 06:31:31;;;;;;;22.08;11.27;;;;;;;13.43;100.00;102280.88;5236204;28;20381;-69
2023/06/01 06:34:01;;;;;;;20.65;10.95;;;;;;;13.49;100.00;102290.19;5243017;28;20029;-70
2023/06/01 06:36:32;;;;;;;23.00;10.85;;;;;;;13.67;100.00;102280.31;5243493;28;20025;-69
2023/06/01 06:39:02;;;;;;;26.30;12.32;;;;;;;13.72;100.00;102280.72;5243210;28;20035;-70
2023/06/01 06:41:33;;;;;;;30.17;10.73;;;;;;;13.55;100.00;102286.06;5255235;28;20066;-70
2023/06/01 06:44:03;;;;;;;23.25;11.00;;;;;;;13.54;100.00;102282.50;5243638;28;20033;-69
2023/06/01 06:46:34;;;;;;;19.45;10.63;;;;;;;13.66;100.00;102278.63;5248163;28;20047;-69
2023/06/01 06:49:05;;;;;;;21.20;10.80;;;;;;;13.69;100.00;102285.53;5242757;28;20031;-69
2023/06/01 06:51:37;;;;;;;21.15;10.45;;;;;;;13.73;100.00;102278.84;5246450;28;20107;-69
2023/06/01 06:54:08;;;;;;;26.73;11.73;;;;;;;13.77;100.00;102274.84;5255296;28;20043;-69
2023/06/01 06:56:38;;;;;;;22.73;10.85;;;;;;;13.63;100.00;102273.53;5245535;28;20492;-69
2023/06/01 06:59:09;;;;;;;21.23;10.68;;;;;;;13.57;100.00;102276.84;5242754;28;20024;-69
2023/06/01 07:01:40;;;;;;;20.80;11.40;;;;;;;13.57;100.00;102282.22;5249841;28;20025;-69
2023/06/01 07:04:11;;;;;;;23.27;12.05;;;;;;;13.63;100.00;102289.69;5243358;28;20025;-69
2023/06/01 07:06:42;;;;;;;21.95;11.48;;;;;;;13.67;100.00;102288.41;5247491;28;20416;-70
2023/06/01 07:09:12;;;;;;;26.08;10.63;;;;;;;13.68;100.00;102290.09;5248619;28;20531;-70
2023/06/01 07:11:43;;;;;;;21.50;11.68;;;;;;;13.57;100.00;102294.84;5242634;28;20021;-69
2023/06/01 07:14:14;;;;;;;26.23;11.93;;;;;;;13.55;100.00;102295.00;5241939;28;20482;-69
2023/06/01 07:16:45;;;;;;;24.08;11.43;;;;;;;13.62;100.00;102285.31;5250033;28;20024;-69
2023/06/01 07:19:16;;;;;;;23.77;12.60;;;;;;;13.70;100.00;102290.81;5245735;28;20108;-69
2023/06/01 07:21:46;;;;;;;28.15;12.30;;;;;;;13.64;100.00;102285.16;5242034;28;20028;-69
2023/06/01 07:24:19;;;;;;;26.83;12.07;;;;;;;13.58;100.00;102291.16;5243031;28;20371;-69
2023/06/01 07:26:51;;;;;;;19.73;10.85;;;;;;;13.55;100.00;102289.59;5249609;28;20031;-69
2023/06/01 07:29:22;;;;;;;25.92;11.27;;;;;;;13.66;100.00;102288.56;5242463;28;20456;-69
2023/06/01 07:31:52;;;;;;;25.85;11.20;;;;;;;13.61;100.00;102286.31;5253844;28;20047;-69
2023/06/01 07:34:24;;;;;;;26.50;11.48;;;;;;;13.81;100.00;102276.25;5242617;28;20537;-69
2023/06/01 07:36:58;;;;;;;22.15;10.93;;;;;;;14.36;100.00;102277.94;5246243;28;20111;-69
2023/06/01 07:39:30;;;;;;;22.92;11.25;;;;;;;15.16;100.00;102282.22;5243388;28;20047;-70
2023/06/01 07:42:01;;;;;;;20.98;11.35;;;;;;;15.69;100.00;102278.38;5243731;28;20029;-70
2023/06/01 07:44:31;;;;;;;20.08;10.35;;;;;;;16.74;100.00;102274.03;5244037;28;20386;-71
2023/06/01 07:47:02;;;;;;;20.25;10.93;;;;;;;17.63;100.00;102282.03;5226374;28;20024;-70
2023/06/01 07:49:35;;;;;;;18.92;9.82;;;;;;;18.31;100.00;102286.69;5243530;28;20027;-71
2023/06/01 07:52:07;;;;;;;16.23;9.63;;;;;;;18.73;100.00;102282.63;5230485;28;20408;-70
2023/06/01 07:54:37;;;;;;;18.58;9.85;;;;;;;19.29;100.00;102286.56;5242573;28;20035;-70
2023/06/01 07:57:08;;;;;;;19.25;8.95;;;;;;;19.91;100.00;102288.78;5231013;28;20024;-71
2023/06/01 07:59:39;;;;;;;15.48;9.27;;;;;;;20.36;100.00;102289.44;5242901;28;20029;-71
2023/06/01 08:02:10;;;;;;;18.77;10.35;;;;;;;20.06;100.00;102293.34;5243560;28;20097;-71
2023/06/01 08:04:41;;;;;;;15.90;8.48;;;;;;;20.92;100.00;102291.38;5241541;28;20021;-71
2023/06/01 08:07:14;;;;;;;16.48;9.05;;;;;;;21.28;100.00;102290.31;5231279;28;20028;-71
2023/06/01 08:09:44;;;;;;;15.95;9.05;;;;;;;21.48;100.00;102282.25;5227007;28;20032;-71
2023/06/01 08:12:15;;;;;;;18.50;9.98;;;;;;;21.41;100.00;102280.34;5240163;28;20466;-71
2023/06/01 08:14:45;;;;;;;16.85;9.73;;;;;;;21.83;100.00;102275.63;5243635;28;20032;-71
2023/06/01 08:17:16;;;;;;;18.77;9.00;;;;;;;22.36;100.00;102277.66;5241824;28;20510;-71
2023/06/01 08:19:47;;;;;;;17.08;9.00;;;;;;;22.83;100.00;102278.44;5229498;28;20398;-71
2023/06/01 08:22:20;;;;;;;13.98;9.30;;;;;;;22.53;100.00;102278.06;5233108;28;20090;-71
2023/06/01 08:24:52;;;;;;;20.73;9.80;;;;;;;22.34;100.00;102275.13;5232995;28;20013;-71
2023/06/01 08:27:23;;;;;;;12.75;8.80;;;;;;;22.37;100.00;102271.13;5242199;28;20025;-71
2023/06/01 08:29:54;;;;;;;16.23;8.55;;;;;;;22.97;100.00;102267.28;5242687;28;20024;-71
2023/06/01 08:32:24;;;;;;;13.93;8.98;;;;;;;23.24;100.00;102272.69;5224010;28;20101;-72
2023/06/01 08:34:55;;;;;;;15.75;9.75;;;;;;;23.10;100.00;102268.34;5222014;28;20548;-72
2023/06/01 08:37:25;;;;;;;16.83;9.50;;;;;;;23.04;100.00;102272.75;5227912;28;20382;-72
2023/06/01 08:39:56;;;;;;;17.35;9.50;;;;;;;23.29;100.00;102267.41;5228201;28;20061;-71
2023/06/01 08:42:45;;;;;;;18.88;9.77;;;;;;;23.55;100.00;102265.63;5222253;28;20107;-72
2023/06/01 08:45:17;;;;;;;23.25;10.50;;;;;;;23.75;100.00;102263.66;5235073;28;20115;-72
2023/06/01 08:47:48;;;;;;;17.83;9.65;;;;;;;23.88;100.00;102266.28;5242805;28;20020;-72
2023/06/01 08:50:20;;;;;;;15.38;9.80;;;;;;;23.98;100.00;102263.06;5243864;28;20032;-72
2023/06/01 08:52:54;;;;;;;19.60;9.93;;;;;;;24.17;100.00;102259.34;5228666;28;20406;-72
2023/06/01 08:55:25;;;;;;;20.13;9.93;;;;;;;23.90;100.00;102263.34;5230153;28;20482;-72
2023/06/01 08:57:56;;;;;;;19.15;10.48;;;;;;;23.83;100.00;102259.78;5239268;28;20039;-72
2023/06/01 09:00:28;;;;;;;24.20;10.93;;;;;;;23.86;100.00;102256.63;5221736;28;20478;-72
2023/06/01 09:02:59;;;;;;;16.83;9.95;;;;;;;24.24;100.00;102243.66;5235154;28;20071;-72
2023/06/01 09:05:30;;;;;;;17.33;8.77;;;;;;;24.90;94.37;102247.75;5221383;28;20017;-72
2023/06/01 09:08:00;;;;;;;19.08;10.60;;;;;;;24.23;100.00;102243.91;5233326;28;20378;-71
2023/06/01 09:10:31;;;;;;;18.98;10.93;;;;;;;23.72;100.00;102251.22;5221039;28;20058;-72
2023/06/01 09:13:03;;;;;;;20.73;9.77;;;;;;;23.86;100.00;102257.47;5226490;28;20055;-72
2023/06/01 09:15:33;;;;;;;17.80;9.95;;;;;;;24.38;100.00;102243.59;5228817;28;20028;-72
2023/06/01 09:18:07;;;;;;;17.13;10.60;;;;;;;23.88;100.00;102258.06;5227760;28;20051;-72
2023/06/01 09:20:39;;;;;;;17.42;11.05;;;;;;;23.85;100.00;102250.31;5241352;28;20078;-72
2023/06/01 09:23:09;;;;;;;17.60;10.00;;;;;;;24.04;100.00;102242.97;5230053;28;20035;-72
2023/06/01 09:25:40;;;;;;;25.27;11.05;;;;;;;24.06;100.00;102234.56;5224722;28;20024;-72
2023/06/01 09:28:11;;;;;;;21.17;10.60;;;;;;;24.25;100.00;102234.41;5212682;28;20624;-72
2023/06/01 09:30:44;;;;;;;15.60;9.70;;;;;;;24.74;89.87;102229.94;5235248;28;20478;-72
2023/06/01 09:33:18;;;;;;;20.50;10.27;;;;;;;24.06;100.00;102229.91;5221739;28;20071;-72
2023/06/01 09:35:49;;;;;;;15.90;10.52;;;;;;;23.91;98.65;102235.72;5227581;28;20028;-72
2023/06/01 09:38:24;;;;;;;19.48;10.30;;;;;;;24.33;97.52;102218.72;5237084;28;20024;-72
2023/06/01 09:41:15;;;;;;;20.27;11.05;;;;;;;24.38;97.92;102238.94;5240445;28;20090;-72
2023/06/01 09:43:46;;;;;;;20.05;11.52;;;;;;;24.14;99.54;102231.53;5240479;28;20652;-72
2023/06/01 09:46:17;;;;;;;20.98;11.00;;;;;;;24.20;96.41;102226.00;5242020;28;20089;-72
2023/06/01 09:48:49;;;;;;;24.25;10.55;;;;;;;24.59;100.00;102217.66;5241626;28;20042;-72
2023/06/01 09:51:28;;;;;;;18.13;10.30;;;;;;;24.65;94.88;102222.22;5242142;28;20024;-72
2023/06/01 09:54:00;;;;;;;18.70;11.48;;;;;;;24.96;98.89;102218.53;5240273;28;20474;-72
2023/06/01 09:56:44;;;;;;;22.80;11.65;;;;;;;25.61;81.96;102223.44;5233891;28;20569;-72
2023/06/01 09:59:14;;;;;;;20.52;11.10;;;;;;;24.97;93.43;102209.22;5220686;28;20029;-72
2023/06/01 10:01:49;;;;;;;18.50;11.60;;;;;;;24.62;85.18;102203.50;5240500;28;20028;-72
2023/06/01 10:04:22;;;;;;;;;;;;;;;24.15;100.00;102205.81;5227136;28;20159;-72
2023/06/01 10:06:56;;;;;;;20.85;11.60;;;;;;;24.21;100.00;102197.53;5228791;28;19961;-72
2023/06/01 10:09:27;;;;;;;21.88;12.05;;;;;;;24.38;100.00;102205.19;5227945;28;20518;-72
2023/06/01 10:11:58;;;;;;;24.13;12.85;;;;;;;24.70;100.00;102209.53;5240469;28;20025;-72
2023/06/01 10:14:30;;;;;;;26.02;11.68;;;;;;;25.07;100.00;102201.31;5238181;28;20074;-72
2023/06/01 10:17:01;;;;;;;18.75;11.68;;;;;;;25.28;92.49;102200.81;5240954;28;20070;-72
2023/06/01 10:19:32;;;;;;;19.45;12.27;;;;;;;24.90;100.00;102190.09;5228240;28;20567;-72
2023/06/01 10:22:03;;;;;;;28.67;12.82;;;;;;;24.67;100.00;102192.66;5239567;28;20029;-72
2023/06/01 10:24:40;;;;;;;24.67;13.27;;;;;;;24.58;100.00;102191.28;5241961;28;20455;-72
2023/06/01 10:27:26;;;;;;;20.00;11.68;;;;;;;24.83;96.59;102193.97;5241015;28;20037;-72
2023/06/01 10:29:57;;;;;;;23.20;13.10;;;;;;;24.30;100.00;102195.34;5245003;28;20477;-72
2023/06/01 10:32:37;;;;;;;20.33;13.27;;;;;;;23.95;100.00;102198.59;5245613;28;20032;-72
2023/06/01 10:35:10;;;;;;;26.17;13.55;;;;;;;23.69;100.00;102196.00;5232036;28;20029;-72
2023/06/01 10:37:41;;;;;;;26.98;13.43;;;;;;;23.86;100.00;102196.34;5244541;28;20040;-71
2023/06/01 10:40:21;;;;;;;26.73;13.27;;;;;;;24.01;100.00;102192.22;5245217;28;20159;-72
2023/06/01 10:42:51;;;;;;;25.27;13.40;;;;;;;24.20;100.00;102186.78;5245966;28;20032;-72
2023/06/01 10:45:39;;;;;;;25.30;13.07;;;;;;;24.35;99.02;102186.41;5234413;28;20381;-72
2023/06/01 10:48:11;;;;;;;24.70;13.05;;;;;;;24.46;100.00;102182.97;5239708;28;20029;-72
2023/06/01 10:50:42;;;;;;;26.45;13.43;;;;;;;24.71;100.00;102183.75;5242666;28;20089;-72
2023/06/01 10:53:31;;;;;;;20.77;13.20;;;;;;;24.85;94.54;102172.59;5245377;28;20028;-71
2023/06/01 10:56:35;;;;;;;24.77;12.80;;;;;;;25.00;95.75;102167.56;5244942;28;20152;-72
2023/06/01 10:59:06;;;;;;;23.35;13.02;;;;;;;24.89;89.84;102168.34;5248185;28;20028;-72
2023/06/01 11:01:39;;;;;;;26.23;14.25;;;;;;;24.66;90.41;102158.06;5248895;28;20079;-71
2023/06/01 11:04:10;;;;;;;22.27;13.07;;;;;;;24.79;93.54;102153.25;5243853;28;20020;-72
2023/06/01 11:06:43;;;;;;;26.08;12.82;;;;;;;24.88;86.79;102144.72;5249715;28;20393;-72
2023/06/01 11:09:15;;;;;;;25.92;12.80;;;;;;;24.96;88.73;102150.75;5249095;28;20056;-72
2023/06/01 11:12:05;;;;;;;24.50;13.55;;;;;;;24.90;97.07;102137.94;5242439;28;20115;-71
2023/06/01 11:14:35;;;;;;;20.23;12.98;;;;;;;24.94;100.00;102144.63;5239876;28;20031;-71
2023/06/01 11:17:26;;;;;;;24.45;12.73;;;;;;;25.09;100.00;102136.00;5240535;28;20385;-72
2023/06/01 11:19:58;;;;;;;24.23;12.02;;;;;;;25.27;92.28;102135.97;5239752;28;20115;-72
2023/06/01 11:22:48;;;;;;;25.42;12.48;;;;;;;25.09;91.53;102136.00;5240641;28;20083;-72
2023/06/01 11:25:20;;;;;;;23.20;13.00;;;;;;;24.87;99.95;102138.41;5244469;28;20025;-72
2023/06/01 11:27:51;;;;;;;21.60;12.13;;;;;;;24.84;86.98;102133.34;5246125;28;20046;-72